createdAt,value
2017-07-23T00:00:10.314Z,23.54
2017-07-23T00:00:50.787Z,23.51
2017-07-23T00:01:31.226Z,23.51
2017-07-23T00:02:11.703Z,23.5
2017-07-23T00:02:52.181Z,23.53
2017-07-23T00:03:32.661Z,23.46
2017-07-23T00:04:13.142Z,23.51
2017-07-23T00:04:53.682Z,23.51
2017-07-23T00:05:34.093Z,23.42
2017-07-23T00:06:14.510Z,23.5
2017-07-23T00:06:54.995Z,23.42
2017-07-23T00:07:35.444Z,23.5
2017-07-23T00:08:15.909Z,23.42
2017-07-23T00:08:56.323Z,23.28
2017-07-23T00:09:36.756Z,23.27
2017-07-23T00:10:17.185Z,23.46
2017-07-23T00:10:57.641Z,23.31
2017-07-23T00:11:38.116Z,23.33
2017-07-23T00:12:18.549Z,23.23
2017-07-23T00:12:59.010Z,23.36
2017-07-23T00:13:39.498Z,23.36
2017-07-23T00:14:19.998Z,23.35
2017-07-23T00:15:00.479Z,23.38
2017-07-23T00:15:40.950Z,23.46
2017-07-23T00:16:21.405Z,23.38
2017-07-23T00:17:01.854Z,23.32
2017-07-23T00:17:42.295Z,23.32
2017-07-23T00:18:22.779Z,23.23
2017-07-23T00:19:03.231Z,23.22
2017-07-23T00:19:43.780Z,23.22
2017-07-23T00:20:24.233Z,23.23
2017-07-23T00:21:04.651Z,23.31
2017-07-23T00:21:45.148Z,23.2
2017-07-23T00:22:25.575Z,23.25
2017-07-23T00:23:06.007Z,23.15
2017-07-23T00:23:46.490Z,23.16
2017-07-23T00:24:26.949Z,23.15
2017-07-23T00:25:07.418Z,23.13
2017-07-23T00:25:47.858Z,23.01
2017-07-23T00:26:28.316Z,23.12
2017-07-23T00:27:08.748Z,23.13
2017-07-23T00:29:06.444Z,23.05
2017-07-23T00:29:46.885Z,23.17
2017-07-23T00:30:27.273Z,23.13
2017-07-23T00:31:07.741Z,23.12
2017-07-23T00:31:48.226Z,23.16
2017-07-23T00:32:28.686Z,23.22
2017-07-23T00:33:09.109Z,23.19
2017-07-23T00:33:49.554Z,23.17
2017-07-23T00:34:30.011Z,23.15
2017-07-23T00:35:10.502Z,23.1
2017-07-23T00:35:50.909Z,23.07
2017-07-23T00:36:31.388Z,23.09
2017-07-23T00:37:11.852Z,23.01
2017-07-23T00:37:52.299Z,23.09
2017-07-23T00:38:32.708Z,23.12
2017-07-23T00:39:13.170Z,23.02
2017-07-23T00:39:53.651Z,23.07
2017-07-23T00:40:34.033Z,22.98
2017-07-23T00:42:21.574Z,23.04
2017-07-23T00:43:02.002Z,22.88
2017-07-23T00:44:54.569Z,22.88
2017-07-23T00:45:35.020Z,22.77
2017-07-23T00:46:15.505Z,22.8
2017-07-23T00:46:56.918Z,22.79
2017-07-23T00:47:37.441Z,22.82
2017-07-23T00:48:17.905Z,22.8
2017-07-23T00:48:58.366Z,22.67
2017-07-23T00:49:38.826Z,22.82
2017-07-23T00:50:19.281Z,22.72
2017-07-23T00:50:59.738Z,22.7
2017-07-23T00:52:57.351Z,22.67
2017-07-23T00:53:37.790Z,22.77
2017-07-23T00:54:18.246Z,22.68
2017-07-23T00:56:32.054Z,22.75
2017-07-23T00:57:12.326Z,22.72
2017-07-23T00:57:52.804Z,22.58
2017-07-23T00:58:33.240Z,22.55
2017-07-23T00:59:13.684Z,22.68
2017-07-23T00:59:54.098Z,22.57
2017-07-23T01:00:34.585Z,22.57
2017-07-23T01:01:15.043Z,22.6
2017-07-23T01:01:55.457Z,22.64
2017-07-23T01:02:35.936Z,22.57
2017-07-23T01:03:16.336Z,22.61
2017-07-23T01:03:56.811Z,22.57
2017-07-23T01:04:37.224Z,22.61
2017-07-23T01:05:17.675Z,22.57
2017-07-23T01:05:58.154Z,22.42
2017-07-23T01:06:38.597Z,22.43
2017-07-23T01:07:19.093Z,22.4
2017-07-23T01:07:59.562Z,22.39
2017-07-23T01:08:40.026Z,22.45
2017-07-23T01:10:37.709Z,22.46
2017-07-23T01:11:18.150Z,22.39
2017-07-23T01:11:58.629Z,22.42
2017-07-23T01:12:39.647Z,22.43
2017-07-23T01:13:20.138Z,22.37
2017-07-23T01:14:00.559Z,22.36
2017-07-23T01:14:41.014Z,22.39
2017-07-23T01:15:21.456Z,22.36
2017-07-23T01:16:01.921Z,22.36
2017-07-23T01:16:42.366Z,22.39
2017-07-23T01:17:22.848Z,22.43
2017-07-23T01:18:03.969Z,22.39
2017-07-23T01:18:44.441Z,22.3
2017-07-23T01:19:24.893Z,22.27
2017-07-23T01:20:05.344Z,22.25
2017-07-23T01:20:46.460Z,22.18
2017-07-23T01:21:26.898Z,22.3
2017-07-23T01:22:08.371Z,22.25
2017-07-23T01:22:48.812Z,22.27
2017-07-23T01:25:01.556Z,22.28
2017-07-23T01:25:41.985Z,22.22
2017-07-23T01:27:54.755Z,22.35
2017-07-23T01:28:35.183Z,22.25
2017-07-23T01:30:22.993Z,22.28
2017-07-23T01:31:03.491Z,22.39
2017-07-23T01:31:43.932Z,22.43
2017-07-23T01:32:24.380Z,22.4
2017-07-23T01:33:04.867Z,22.43
2017-07-23T01:34:57.417Z,22.54
2017-07-23T01:35:38.334Z,22.39
2017-07-23T01:36:18.826Z,22.43
2017-07-23T01:36:59.291Z,22.43
2017-07-23T01:37:39.750Z,22.54
2017-07-23T01:39:37.385Z,22.46
2017-07-23T01:40:17.837Z,22.35
2017-07-23T01:40:58.312Z,22.31
2017-07-23T01:41:38.750Z,22.39
2017-07-23T01:42:19.224Z,22.36
2017-07-23T01:42:59.646Z,22.39
2017-07-23T01:43:40.116Z,22.39
2017-07-23T01:44:20.579Z,22.37
2017-07-23T01:45:01.040Z,22.31
2017-07-23T01:45:41.491Z,22.3
2017-07-23T01:46:21.976Z,22.36
2017-07-23T01:47:02.429Z,22.27
2017-07-23T01:49:00.118Z,22.25
2017-07-23T01:49:41.463Z,22.25
2017-07-23T01:50:21.880Z,22.24
2017-07-23T01:51:02.359Z,22.22
2017-07-23T01:51:42.790Z,22.24
2017-07-23T01:52:23.245Z,22.27
2017-07-23T01:53:03.667Z,22.25
2017-07-23T01:54:56.656Z,22.3
2017-07-23T01:55:37.005Z,22.3
2017-07-23T01:56:17.504Z,22.24
2017-07-23T01:56:58.009Z,22.18
2017-07-23T01:57:38.493Z,22.24
2017-07-23T01:58:18.925Z,22.31
2017-07-23T01:58:59.389Z,22.28
2017-07-23T01:59:39.854Z,22.28
2017-07-23T02:00:20.305Z,22.35
2017-07-23T02:01:00.791Z,22.28
2017-07-23T02:01:41.274Z,22.33
2017-07-23T02:02:21.707Z,22.25
2017-07-23T02:03:02.179Z,22.25
2017-07-23T02:03:42.621Z,22.27
2017-07-23T02:04:23.059Z,22.2
2017-07-23T02:05:03.578Z,22.18
2017-07-23T02:05:43.992Z,22.2
2017-07-23T02:06:24.502Z,22.17
2017-07-23T02:07:04.918Z,22.28
2017-07-23T02:07:45.411Z,22.21
2017-07-23T02:08:25.832Z,22.2
2017-07-23T02:09:06.272Z,22.24
2017-07-23T02:09:46.721Z,22.17
2017-07-23T02:10:27.229Z,22.24
2017-07-23T02:11:07.659Z,22.27
2017-07-23T02:11:48.154Z,22.21
2017-07-23T02:12:28.576Z,22.28
2017-07-23T02:13:09.061Z,22.3
2017-07-23T02:13:49.577Z,22.33
2017-07-23T02:14:30.006Z,22.31
2017-07-23T02:16:27.685Z,22.18
2017-07-23T02:17:08.147Z,21.96
2017-07-23T02:17:48.527Z,21.91
2017-07-23T02:18:28.989Z,21.96
2017-07-23T02:19:09.440Z,21.91
2017-07-23T02:19:49.903Z,21.84
2017-07-23T02:20:30.384Z,21.84
2017-07-23T02:21:10.825Z,21.8
2017-07-23T02:21:51.278Z,21.9
2017-07-23T02:22:31.751Z,21.86
2017-07-23T02:23:12.262Z,21.77
2017-07-23T02:23:52.705Z,21.86
2017-07-23T02:24:33.154Z,21.75
2017-07-23T02:25:13.622Z,21.68
2017-07-23T02:25:54.147Z,21.79
2017-07-23T02:26:34.541Z,21.75
2017-07-23T02:27:15.018Z,21.64
2017-07-23T02:27:55.433Z,21.59
2017-07-23T02:28:35.928Z,21.46
2017-07-23T02:30:48.678Z,21.22
2017-07-23T02:31:30.087Z,21.09
2017-07-23T02:32:10.553Z,20.98
2017-07-23T02:32:51.063Z,20.94
2017-07-23T02:33:31.526Z,20.79
2017-07-23T02:34:12.006Z,20.66
2017-07-23T02:36:24.788Z,20.62
2017-07-23T02:37:05.206Z,20.48
2017-07-23T02:37:45.710Z,20.42
2017-07-23T02:38:26.903Z,20.35
2017-07-23T02:39:07.367Z,20.32
2017-07-23T02:39:47.804Z,20.36
2017-07-23T02:41:45.526Z,20.17
2017-07-23T02:42:25.911Z,20.14
2017-07-23T02:43:06.404Z,20.06
2017-07-23T02:43:46.869Z,20.17
2017-07-23T02:44:27.405Z,20.13
2017-07-23T02:45:07.858Z,20.16
2017-07-23T02:45:48.367Z,20.17
2017-07-23T02:46:28.861Z,20.14
2017-07-23T02:48:41.653Z,20.03
2017-07-23T02:49:22.033Z,19.96
2017-07-23T02:50:02.520Z,19.92
2017-07-23T02:50:43.040Z,19.96
2017-07-23T02:51:23.508Z,19.91
2017-07-23T02:52:04.020Z,19.92
2017-07-23T02:52:44.442Z,19.84
2017-07-23T02:53:24.904Z,19.69
2017-07-23T02:54:05.374Z,19.56
2017-07-23T02:54:45.856Z,19.48
2017-07-23T02:55:26.267Z,19.46
2017-07-23T02:56:06.745Z,19.33
2017-07-23T02:56:47.893Z,19.4
2017-07-23T02:58:35.779Z,19.29
2017-07-23T02:59:15.968Z,19.28
2017-07-23T02:59:56.437Z,19.31
2017-07-23T03:00:36.904Z,19.21
2017-07-23T03:01:17.345Z,19.19
2017-07-23T03:01:57.809Z,19.29
2017-07-23T03:02:38.259Z,19.26
2017-07-23T03:03:18.752Z,19.22
2017-07-23T03:03:59.205Z,19.31
2017-07-23T03:04:39.670Z,19.26
2017-07-23T03:05:20.118Z,19.19
2017-07-23T03:07:12.719Z,19.21
2017-07-23T03:07:53.138Z,19.22
2017-07-23T03:08:33.590Z,19.14
2017-07-23T03:10:46.356Z,19.16
2017-07-23T03:11:26.728Z,19.16
2017-07-23T03:12:07.203Z,19.16
2017-07-23T03:12:47.614Z,19.1
2017-07-23T03:13:28.092Z,19.16
2017-07-23T03:15:25.838Z,19.22
2017-07-23T03:16:06.209Z,19.21
2017-07-23T03:16:46.652Z,19.21
2017-07-23T03:17:27.147Z,19.08
2017-07-23T03:18:07.567Z,19.18
2017-07-23T03:18:47.970Z,19.1
2017-07-23T03:19:28.391Z,19.13
2017-07-23T03:20:08.835Z,19.1
2017-07-23T03:20:49.313Z,19.18
2017-07-23T03:21:29.731Z,19.21
2017-07-23T03:22:10.181Z,19.16
2017-07-23T03:22:50.619Z,19.11
2017-07-23T03:23:31.145Z,19.14
2017-07-23T03:24:11.594Z,19.18
2017-07-23T03:24:52.068Z,19.18
2017-07-23T03:25:32.490Z,19.08
2017-07-23T03:26:12.984Z,19.13
2017-07-23T03:29:06.296Z,19.23
2017-07-23T03:29:46.752Z,19.13
2017-07-23T03:30:27.204Z,19.21
2017-07-23T03:31:07.653Z,19.22
2017-07-23T03:31:48.116Z,19.25
2017-07-23T03:32:28.578Z,19.28
2017-07-23T03:33:09.567Z,19.23
2017-07-23T03:33:49.994Z,19.23
2017-07-23T03:34:30.462Z,19.21
2017-07-23T03:35:10.920Z,19.26
2017-07-23T03:35:51.370Z,19.26
2017-07-23T03:36:31.780Z,19.23
2017-07-23T03:38:44.518Z,19.29
2017-07-23T03:39:24.970Z,19.37
2017-07-23T03:40:05.433Z,19.23
2017-07-23T03:40:45.903Z,19.26
2017-07-23T03:41:26.358Z,19.19
2017-07-23T03:42:06.821Z,19.31
2017-07-23T03:42:47.286Z,19.31
2017-07-23T03:43:27.731Z,19.22
2017-07-23T03:44:08.182Z,19.31
2017-07-23T03:44:48.634Z,19.22
2017-07-23T03:45:29.099Z,19.33
2017-07-23T03:46:09.557Z,19.25
2017-07-23T03:46:50.020Z,19.33
2017-07-23T03:47:30.488Z,19.25
2017-07-23T03:48:10.936Z,19.21
2017-07-23T03:48:51.464Z,19.18
2017-07-23T03:49:31.875Z,19.25
2017-07-23T03:50:12.298Z,19.29
2017-07-23T03:50:52.734Z,19.29
2017-07-23T03:51:33.233Z,19.25
2017-07-23T03:52:13.678Z,19.28
2017-07-23T03:54:11.797Z,19.25
2017-07-23T03:54:52.154Z,19.36
2017-07-23T03:55:32.620Z,19.31
2017-07-23T03:57:20.851Z,19.28
2017-07-23T03:58:01.034Z,19.32
2017-07-23T03:58:41.503Z,19.36
2017-07-23T03:59:21.943Z,19.29
2017-07-23T04:00:02.411Z,19.28
2017-07-23T04:00:42.887Z,19.28
2017-07-23T04:01:23.327Z,19.29
2017-07-23T04:02:03.803Z,19.32
2017-07-23T04:02:44.251Z,19.36
2017-07-23T04:03:24.691Z,19.28
2017-07-23T04:04:05.123Z,19.33
2017-07-23T04:05:58.057Z,19.41
2017-07-23T04:06:38.475Z,19.43
2017-07-23T04:07:18.907Z,19.44
2017-07-23T04:07:59.362Z,19.48
2017-07-23T04:08:39.800Z,19.39
2017-07-23T04:09:20.243Z,19.4
2017-07-23T04:10:57.703Z,19.44
2017-07-23T04:11:38.118Z,19.43
2017-07-23T04:12:18.570Z,19.44
2017-07-23T04:12:59.035Z,19.43
2017-07-23T04:13:39.519Z,19.32
2017-07-23T04:14:19.950Z,19.31
2017-07-23T04:15:00.400Z,19.41
2017-07-23T04:15:40.857Z,19.43
2017-07-23T04:16:21.329Z,19.47
2017-07-23T04:17:01.797Z,19.44
2017-07-23T04:17:42.246Z,19.51
2017-07-23T04:18:22.664Z,19.48
2017-07-23T04:19:03.142Z,19.44
2017-07-23T04:19:43.560Z,19.48
2017-07-23T04:20:24.031Z,19.48
2017-07-23T04:21:04.482Z,19.48
2017-07-23T04:21:44.903Z,19.43
2017-07-23T04:22:25.393Z,19.51
2017-07-23T04:23:05.825Z,19.5
2017-07-23T04:23:46.271Z,19.46
2017-07-23T04:24:26.684Z,19.55
2017-07-23T04:25:07.162Z,19.47
2017-07-23T04:25:47.588Z,19.5
2017-07-23T04:26:28.066Z,19.46
2017-07-23T04:27:08.522Z,19.48
2017-07-23T04:27:48.957Z,19.4
2017-07-23T04:29:46.580Z,19.5
2017-07-23T04:30:27.055Z,19.4
2017-07-23T04:31:07.519Z,19.43
2017-07-23T04:31:48.140Z,19.5
2017-07-23T04:32:28.648Z,19.46
2017-07-23T04:33:09.133Z,19.43
2017-07-23T04:33:49.587Z,19.47
2017-07-23T04:34:30.026Z,19.44
2017-07-23T04:35:10.485Z,19.46
2017-07-23T04:35:50.904Z,19.46
2017-07-23T04:36:31.376Z,19.5
2017-07-23T04:37:11.795Z,19.47
2017-07-23T04:37:52.302Z,19.58
2017-07-23T04:39:50.011Z,19.43
2017-07-23T04:40:30.393Z,19.46
2017-07-23T04:41:10.870Z,19.48
2017-07-23T04:41:51.361Z,19.48
2017-07-23T04:42:31.796Z,19.46
2017-07-23T04:43:12.291Z,19.47
2017-07-23T04:43:52.743Z,19.5
2017-07-23T04:44:33.214Z,19.5
2017-07-23T04:45:13.696Z,19.51
2017-07-23T04:45:54.712Z,19.48
2017-07-23T04:48:07.430Z,19.5
2017-07-23T04:48:47.888Z,19.43
2017-07-23T04:49:28.343Z,19.5
2017-07-23T04:50:08.771Z,19.54
2017-07-23T04:50:49.268Z,19.43
2017-07-23T04:52:46.887Z,19.58
2017-07-23T04:53:27.385Z,19.62
2017-07-23T04:54:07.836Z,19.58
2017-07-23T04:54:48.291Z,19.51
2017-07-23T04:55:28.755Z,19.62
2017-07-23T04:56:09.259Z,19.65
2017-07-23T04:56:49.750Z,19.63
2017-07-23T04:57:30.222Z,19.62
2017-07-23T04:58:10.614Z,19.68
2017-07-23T04:58:51.102Z,19.66
2017-07-23T04:59:31.553Z,19.69
2017-07-23T05:00:11.960Z,19.69
2017-07-23T05:00:52.382Z,19.61
2017-07-23T05:01:32.853Z,19.63
2017-07-23T05:02:13.325Z,19.65
2017-07-23T05:02:53.774Z,19.68
2017-07-23T05:03:34.247Z,19.65
2017-07-23T05:04:14.679Z,19.69
2017-07-23T05:04:55.115Z,19.58
2017-07-23T05:05:35.574Z,19.58
2017-07-23T05:06:15.996Z,19.59
2017-07-23T05:07:53.557Z,19.54
2017-07-23T05:08:33.911Z,19.65
2017-07-23T05:09:14.381Z,19.61
2017-07-23T05:09:54.839Z,19.61
2017-07-23T05:10:35.317Z,19.63
2017-07-23T05:11:15.797Z,19.61
2017-07-23T05:11:56.333Z,19.69
2017-07-23T05:12:36.774Z,19.66
2017-07-23T05:13:17.238Z,19.65
2017-07-23T05:13:57.728Z,19.71
2017-07-23T05:15:55.427Z,19.74
2017-07-23T05:16:35.894Z,19.65
2017-07-23T05:17:16.352Z,19.69
2017-07-23T05:17:56.833Z,19.77
2017-07-23T05:18:37.246Z,19.77
2017-07-23T05:19:17.694Z,19.8
2017-07-23T05:19:58.123Z,19.69
2017-07-23T05:20:38.592Z,19.68
2017-07-23T05:21:19.055Z,19.63
2017-07-23T05:21:59.502Z,19.71
2017-07-23T05:22:39.946Z,19.61
2017-07-23T05:23:20.397Z,19.78
2017-07-23T05:24:00.849Z,19.68
2017-07-23T05:24:41.312Z,19.74
2017-07-23T05:25:21.774Z,19.68
2017-07-23T05:26:02.211Z,19.69
2017-07-23T05:26:42.635Z,19.78
2017-07-23T05:27:23.136Z,19.78
2017-07-23T05:28:03.600Z,19.87
2017-07-23T05:28:44.040Z,19.81
2017-07-23T05:30:56.760Z,20.16
2017-07-23T05:31:37.189Z,20.2
2017-07-23T05:32:17.655Z,20.08
2017-07-23T05:32:58.104Z,20.23
2017-07-23T05:33:38.540Z,20.2
2017-07-23T05:34:19.012Z,20.32
2017-07-23T05:34:59.471Z,20.32
2017-07-23T05:37:12.254Z,20.58
2017-07-23T05:37:52.687Z,20.58
2017-07-23T05:38:33.102Z,20.62
2017-07-23T05:39:13.532Z,20.7
2017-07-23T05:39:54.014Z,20.82
2017-07-23T05:41:46.743Z,20.8
2017-07-23T05:42:27.010Z,20.94
2017-07-23T05:43:07.520Z,20.89
2017-07-23T05:43:47.952Z,20.85
2017-07-23T05:44:28.450Z,20.89
2017-07-23T05:46:21.095Z,20.87
2017-07-23T05:47:01.501Z,21.04
2017-07-23T05:47:41.998Z,21.13
2017-07-23T05:48:22.451Z,21.17
2017-07-23T05:49:02.888Z,21.06
2017-07-23T05:49:43.360Z,21.14
2017-07-23T05:50:23.824Z,20.99
2017-07-23T05:51:04.320Z,21.1
2017-07-23T05:51:44.784Z,21.19
2017-07-23T05:52:25.257Z,21.19
2017-07-23T05:53:05.690Z,21.09
2017-07-23T05:53:46.157Z,20.89
2017-07-23T05:54:26.630Z,20.91
2017-07-23T05:55:07.081Z,20.8
2017-07-23T05:55:47.523Z,20.94
2017-07-23T05:56:27.998Z,20.85
2017-07-23T05:57:08.477Z,20.62
2017-07-23T05:57:48.941Z,20.61
2017-07-23T05:58:29.381Z,20.67
2017-07-23T05:59:09.849Z,20.74
2017-07-23T05:59:50.340Z,20.64
2017-07-23T06:00:30.777Z,20.54
2017-07-23T06:01:11.221Z,20.54
2017-07-23T06:01:51.723Z,20.54
2017-07-23T06:02:32.199Z,20.51
2017-07-23T06:03:12.622Z,20.43
2017-07-23T06:03:53.086Z,20.55
2017-07-23T06:04:33.545Z,20.51
2017-07-23T06:05:14.005Z,20.51
2017-07-23T06:05:54.461Z,20.55
2017-07-23T06:06:34.911Z,20.57
2017-07-23T06:07:15.344Z,20.5
2017-07-23T06:07:55.841Z,20.5
2017-07-23T06:08:36.276Z,20.47
2017-07-23T06:09:16.818Z,20.54
2017-07-23T06:09:57.256Z,20.52
2017-07-23T06:10:37.712Z,20.47
2017-07-23T06:11:18.215Z,20.54
2017-07-23T06:11:58.678Z,20.57
2017-07-23T06:14:11.463Z,20.64
2017-07-23T06:14:51.853Z,20.66
2017-07-23T06:15:32.282Z,20.64
2017-07-23T06:17:09.760Z,20.62
2017-07-23T06:17:50.161Z,20.61
2017-07-23T06:18:30.615Z,20.7
2017-07-23T06:19:11.065Z,20.79
2017-07-23T06:19:51.522Z,21.12
2017-07-23T06:20:31.974Z,21.17
2017-07-23T06:21:12.423Z,21.09
2017-07-23T06:21:52.894Z,20.95
2017-07-23T06:22:33.340Z,21.01
2017-07-23T06:23:13.776Z,21.03
2017-07-23T06:23:54.256Z,21.1
2017-07-23T06:24:34.745Z,21.13
2017-07-23T06:25:15.200Z,20.95
2017-07-23T06:25:55.641Z,20.91
2017-07-23T06:26:36.106Z,21.07
2017-07-23T06:27:16.586Z,21.13
2017-07-23T06:27:57.043Z,21.14
2017-07-23T06:28:37.483Z,21.14
2017-07-23T06:29:17.953Z,21.24
2017-07-23T06:29:58.456Z,21.34
2017-07-23T06:30:38.930Z,21.28
2017-07-23T06:31:19.429Z,21.34
2017-07-23T06:31:59.855Z,21.16
2017-07-23T06:32:40.937Z,21.13
2017-07-23T06:34:38.985Z,20.98
2017-07-23T06:35:19.380Z,20.95
2017-07-23T06:35:59.822Z,21.07
2017-07-23T06:36:40.314Z,21.25
2017-07-23T06:37:20.772Z,21.29
2017-07-23T06:38:01.273Z,21.28
2017-07-23T06:38:41.652Z,21.42
2017-07-23T06:39:22.145Z,21.19
2017-07-23T06:40:02.619Z,21.16
2017-07-23T06:42:00.357Z,21.49
2017-07-23T06:42:40.701Z,21.5
2017-07-23T06:43:21.138Z,21.75
2017-07-23T06:44:01.558Z,21.62
2017-07-23T06:44:42.011Z,21.56
2017-07-23T06:45:22.438Z,21.43
2017-07-23T06:46:02.863Z,21.46
2017-07-23T06:46:43.332Z,21.54
2017-07-23T06:47:23.797Z,21.43
2017-07-23T06:48:04.263Z,21.53
2017-07-23T06:50:17.796Z,21.42
2017-07-23T06:50:58.071Z,21.61
2017-07-23T06:51:38.524Z,21.61
2017-07-23T06:53:26.602Z,21.68
2017-07-23T06:54:06.781Z,21.77
2017-07-23T06:54:47.234Z,22.02
2017-07-23T06:55:27.658Z,21.64
2017-07-23T06:56:09.357Z,21.59
2017-07-23T06:56:49.763Z,21.64
2017-07-23T06:58:47.478Z,21.86
2017-07-23T06:59:27.937Z,21.92
2017-07-23T07:00:08.407Z,21.91
2017-07-23T07:02:01.069Z,21.75
2017-07-23T07:02:41.398Z,21.82
2017-07-23T07:03:21.860Z,21.88
2017-07-23T07:04:02.261Z,21.94
2017-07-23T07:04:42.708Z,21.91
2017-07-23T07:05:23.185Z,21.72
2017-07-23T07:06:14.409Z,21.65
2017-07-23T07:06:54.840Z,21.84
2017-07-23T07:08:52.537Z,22.15
2017-07-23T07:09:33.095Z,22.28
2017-07-23T07:10:13.580Z,22.51
2017-07-23T07:10:54.053Z,22.57
2017-07-23T07:11:34.540Z,22.49
2017-07-23T07:12:15.014Z,22.77
2017-07-23T07:12:55.501Z,22.72
2017-07-23T07:13:35.949Z,22.91
2017-07-23T07:14:16.435Z,23.05
2017-07-23T07:15:53.922Z,23.1
2017-07-23T07:16:34.948Z,23.28
2017-07-23T07:17:15.397Z,23.5
2017-07-23T07:17:55.828Z,23.61
2017-07-23T07:18:36.305Z,23.22
2017-07-23T07:19:16.769Z,23.57
2017-07-23T07:19:57.234Z,23.97
2017-07-23T07:20:38.324Z,24.43
2017-07-23T07:21:18.792Z,24.83
2017-07-23T07:21:59.234Z,24.77
2017-07-23T07:22:39.681Z,24.78
2017-07-23T07:23:20.140Z,24.95
2017-07-23T07:24:00.584Z,24.81
2017-07-23T07:24:41.045Z,24.93
2017-07-23T07:25:21.511Z,25.2
2017-07-23T07:26:01.936Z,25.23
2017-07-23T07:26:42.420Z,25.06
2017-07-23T07:27:22.866Z,25.14
2017-07-23T07:28:04.191Z,25.42
2017-07-23T07:28:44.633Z,25.73
2017-07-23T07:29:25.098Z,25.75
2017-07-23T07:30:05.544Z,25.06
2017-07-23T07:30:45.996Z,25.13
2017-07-23T07:31:26.465Z,24.8
2017-07-23T07:32:06.915Z,24.8
2017-07-23T07:32:47.410Z,25
2017-07-23T07:33:27.871Z,25.2
2017-07-23T07:34:08.310Z,25.3
2017-07-23T07:34:48.746Z,24.96
2017-07-23T07:35:29.204Z,24.67
2017-07-23T07:37:41.947Z,24.65
2017-07-23T07:38:22.368Z,24.91
2017-07-23T07:39:02.828Z,25.24
2017-07-23T07:39:43.257Z,25.21
2017-07-23T07:40:23.743Z,25.27
2017-07-23T07:41:04.185Z,25.15
2017-07-23T07:41:44.641Z,25.45
2017-07-23T07:42:25.087Z,25.46
2017-07-23T07:43:05.515Z,25.64
2017-07-23T07:43:46.597Z,25.45
2017-07-23T07:45:44.327Z,25.06
2017-07-23T07:46:24.728Z,25.14
2017-07-23T07:47:05.199Z,25.14
2017-07-23T07:48:52.668Z,24.76
2017-07-23T07:49:33.129Z,24.49
2017-07-23T07:50:13.629Z,24.55
2017-07-23T07:50:54.137Z,24.53
2017-07-23T07:51:34.556Z,24.61
2017-07-23T07:52:15.044Z,24.43
2017-07-23T07:52:55.509Z,23.95
2017-07-23T07:53:35.980Z,23.66
2017-07-23T07:54:16.471Z,23.42
2017-07-23T07:54:56.918Z,23.5
2017-07-23T07:55:37.371Z,23.43
2017-07-23T07:57:29.953Z,23.95
2017-07-23T07:59:42.672Z,24.25
2017-07-23T08:00:23.169Z,24.4
2017-07-23T08:01:03.684Z,24.35
2017-07-23T08:01:44.138Z,24.05
2017-07-23T08:02:24.630Z,24.42
2017-07-23T08:03:05.083Z,24.32
2017-07-23T08:03:45.506Z,24.69
2017-07-23T08:04:25.950Z,24.88
2017-07-23T08:05:06.462Z,25
2017-07-23T08:05:46.866Z,25.14
2017-07-23T08:06:27.300Z,25.25
2017-07-23T08:07:07.751Z,25.09
2017-07-23T08:07:48.194Z,24.96
2017-07-23T08:08:28.630Z,25.33
2017-07-23T08:09:09.085Z,25.23
2017-07-23T08:09:49.588Z,25.52
2017-07-23T08:11:47.284Z,25.9
2017-07-23T08:12:27.634Z,25.98
2017-07-23T08:14:40.353Z,26.7
2017-07-23T08:15:20.810Z,25.98
2017-07-23T08:16:01.365Z,26.07
2017-07-23T08:16:41.790Z,25.6
2017-07-23T08:17:22.245Z,25.7
2017-07-23T08:18:02.697Z,25.65
2017-07-23T08:18:43.121Z,25.75
2017-07-23T08:19:23.622Z,25.75
2017-07-23T08:20:04.073Z,25.77
2017-07-23T08:20:44.528Z,26.05
2017-07-23T08:21:24.983Z,25.99
2017-07-23T08:22:05.446Z,26.02
2017-07-23T08:22:45.915Z,25.9
2017-07-23T08:23:26.339Z,25.54
2017-07-23T08:24:06.774Z,25.4
2017-07-23T08:24:47.219Z,25.13
2017-07-23T08:25:27.666Z,25.1
2017-07-23T08:27:20.250Z,24.96
2017-07-23T08:28:00.699Z,24.37
2017-07-23T08:28:41.143Z,24.83
2017-07-23T08:29:21.604Z,24.77
2017-07-23T08:30:03.009Z,25.05
2017-07-23T08:32:15.797Z,25.18
2017-07-23T08:32:56.283Z,25.18
2017-07-23T08:33:36.757Z,25.18
2017-07-23T08:34:17.264Z,24.96
2017-07-23T08:34:57.724Z,24.8
2017-07-23T08:35:38.190Z,24.2
2017-07-23T08:36:18.663Z,24.34
2017-07-23T08:36:59.151Z,24.32
2017-07-23T08:37:39.677Z,24.34
2017-07-23T08:38:20.189Z,24.37
2017-07-23T08:39:00.622Z,24.32
2017-07-23T08:39:41.098Z,24.12
2017-07-23T08:40:21.610Z,24.39
2017-07-23T08:42:19.268Z,24.08
2017-07-23T08:42:59.711Z,24.25
2017-07-23T08:43:40.214Z,23.8
2017-07-23T08:44:21.285Z,23.63
2017-07-23T08:45:01.736Z,23.69
2017-07-23T08:45:42.187Z,23.84
2017-07-23T08:46:22.652Z,23.78
2017-07-23T08:47:03.119Z,23.7
2017-07-23T08:48:40.503Z,24.1
2017-07-23T08:49:20.980Z,24.32
2017-07-23T08:50:01.448Z,23.97
2017-07-23T08:50:41.881Z,23.87
2017-07-23T08:51:22.377Z,24.05
2017-07-23T08:52:02.805Z,24.28
2017-07-23T08:52:43.287Z,24.43
2017-07-23T08:53:23.826Z,24.45
2017-07-23T08:54:04.298Z,24.5
2017-07-23T08:54:44.792Z,24.65
2017-07-23T08:55:25.232Z,24.55
2017-07-23T08:56:05.682Z,24.37
2017-07-23T08:56:46.130Z,25.14
2017-07-23T08:57:26.571Z,25.57
2017-07-23T08:58:06.984Z,25.8
2017-07-23T08:58:47.482Z,25.91
2017-07-23T09:00:45.141Z,25.85
2017-07-23T09:01:25.581Z,26.13
2017-07-23T09:02:06.040Z,26.06
2017-07-23T09:02:46.507Z,26.15
2017-07-23T09:03:26.950Z,25.94
2017-07-23T09:04:08.128Z,25.87
2017-07-23T09:04:48.578Z,25.27
2017-07-23T09:05:29.026Z,25.33
2017-07-23T09:07:06.396Z,25.45
2017-07-23T09:07:46.856Z,25.14
2017-07-23T09:08:27.319Z,25.18
2017-07-23T09:09:07.790Z,25.39
2017-07-23T09:09:48.249Z,25.08
2017-07-23T09:10:29.343Z,25.09
2017-07-23T09:11:09.868Z,25
2017-07-23T09:11:50.319Z,25.02
2017-07-23T09:12:30.779Z,24.8
2017-07-23T09:13:11.250Z,24.47
2017-07-23T09:13:51.693Z,24.28
2017-07-23T09:14:32.158Z,24.35
2017-07-23T09:16:24.742Z,24.42
2017-07-23T09:17:05.175Z,23.88
2017-07-23T09:17:45.635Z,23.55
2017-07-23T09:19:38.487Z,23.75
2017-07-23T09:20:18.966Z,23.76
2017-07-23T09:20:59.441Z,23.61
2017-07-23T09:21:39.887Z,23.73
2017-07-23T09:22:20.369Z,23.69
2017-07-23T09:23:00.837Z,23.72
2017-07-23T09:23:41.287Z,24.1
2017-07-23T09:25:18.764Z,24.21
2017-07-23T09:25:59.132Z,24.09
2017-07-23T09:26:40.415Z,24.08
2017-07-23T09:27:20.869Z,24.13
2017-07-23T09:28:01.317Z,24.18
2017-07-23T09:29:38.779Z,23.83
2017-07-23T09:30:19.131Z,23.87
2017-07-23T09:30:59.610Z,23.95
2017-07-23T09:31:40.064Z,23.66
2017-07-23T09:32:20.508Z,23.47
2017-07-23T09:33:00.947Z,23.72
2017-07-23T09:33:41.417Z,23.78
2017-07-23T09:34:21.852Z,23.83
2017-07-23T09:35:02.355Z,24
2017-07-23T09:35:42.798Z,23.7
2017-07-23T09:36:23.245Z,24.39
2017-07-23T09:37:03.726Z,25.08
2017-07-23T09:37:44.173Z,26.02
2017-07-23T09:39:41.807Z,28.9
2017-07-23T09:40:22.937Z,29.52
2017-07-23T09:41:03.441Z,29.65
2017-07-23T09:41:43.910Z,29.42
2017-07-23T09:43:56.645Z,29.3
2017-07-23T09:44:37.041Z,29.27
2017-07-23T09:46:14.433Z,28.73
2017-07-23T09:48:12.147Z,29.74
2017-07-23T09:48:52.605Z,30.15
2017-07-23T09:49:33.097Z,29.89
2017-07-23T09:50:13.585Z,30.84
2017-07-23T09:50:54.005Z,31.09
2017-07-23T09:51:34.472Z,31.81
2017-07-23T09:52:14.954Z,31.44
2017-07-23T09:52:55.421Z,31.26
2017-07-23T09:53:35.869Z,31.68
2017-07-23T09:54:16.320Z,31.54
2017-07-23T09:54:56.795Z,31.44
2017-07-23T09:55:37.217Z,32.06
2017-07-23T09:57:50.452Z,30.91
2017-07-23T09:58:30.901Z,30.79
2017-07-23T09:59:11.355Z,31.26
2017-07-23T09:59:51.810Z,31.26
2017-07-23T10:00:32.266Z,30.94
2017-07-23T10:01:12.703Z,30.7
2017-07-23T10:01:53.162Z,30.61
2017-07-23T10:02:33.598Z,29.64
2017-07-23T10:03:14.063Z,29.27
2017-07-23T10:03:54.526Z,28
2017-07-23T10:04:34.993Z,27.93
2017-07-23T10:05:15.442Z,28.19
2017-07-23T10:05:55.909Z,28.37
2017-07-23T10:06:36.362Z,27.81
2017-07-23T10:07:16.814Z,27.18
2017-07-23T10:07:57.262Z,27.41
2017-07-23T10:08:37.724Z,27.41
2017-07-23T10:09:18.191Z,27.62
2017-07-23T10:09:58.644Z,27.69
2017-07-23T10:10:39.108Z,27.62
2017-07-23T10:11:19.560Z,27.28
2017-07-23T10:12:00.051Z,26.88
2017-07-23T10:12:40.530Z,26.97
2017-07-23T10:13:20.985Z,27.46
2017-07-23T10:15:33.747Z,27.77